Time;durP1;ratioP1;P1;durP2;ratioP2;P2;SDS_P1;SDS_P2;PMS_P1;PMS_P2;Temp;Humidity;BMP_temperature;BMP_pressure;BME280_temperature;BME280_humidity;BME280_pressure;Samples;Min_cycle;Max_cycle;Signal;HPM_P1;HPM_P2
2022/09/11 00:00:36;;;;;;;22.57;20.17;;;14.80;99.90;;;;;;5136764;27;20333;-76
2022/09/11 00:03:01;;;;;;;27.23;22.73;;;14.80;99.90;;;;;;5137215;27;20043;-77
2022/09/11 00:05:27;;;;;;;24.50;21.53;;;14.70;99.90;;;;;;5136432;27;20440;-76
2022/09/11 00:07:53;;;;;;;24.93;20.67;;;14.70;99.90;;;;;;5136562;27;20069;-76
2022/09/11 00:10:18;;;;;;;24.57;21.37;;;14.70;99.90;;;;;;5136659;27;20457;-76
2022/09/11 00:12:44;;;;;;;24.45;20.48;;;14.70;99.90;;;;;;5136597;27;20054;-76
2022/09/11 00:15:10;;;;;;;27.57;21.73;;;14.60;99.90;;;;;;5136516;27;20043;-76
2022/09/11 00:17:36;;;;;;;25.75;21.17;;;14.60;99.90;;;;;;5136435;27;20047;-76
2022/09/11 00:20:03;;;;;;;26.83;22.53;;;14.60;99.90;;;;;;5136448;27;20035;-77
2022/09/11 00:22:29;;;;;;;26.05;21.58;;;14.60;99.90;;;;;;5136303;27;20043;-76
2022/09/11 00:24:54;;;;;;;23.63;20.33;;;14.50;99.90;;;;;;5135897;27;20046;-76
2022/09/11 00:27:20;;;;;;;25.23;21.70;;;14.40;99.90;;;;;;5136192;27;20039;-77
2022/09/11 00:29:45;;;;;;;28.93;22.73;;;14.40;99.90;;;;;;5136131;27;20088;-76
2022/09/11 00:32:11;;;;;;;27.07;22.23;;;14.60;99.90;;;;;;5136658;27;20046;-76
2022/09/11 00:34:38;;;;;;;26.97;22.13;;;14.40;99.90;;;;;;5136743;27;20370;-76
2022/09/11 00:37:04;;;;;;;27.65;21.92;;;14.40;99.90;;;;;;5136084;27;20043;-76
2022/09/11 00:39:29;;;;;;;26.52;22.17;;;14.40;99.90;;;;;;5136145;27;20168;-76
2022/09/11 00:41:55;;;;;;;29.07;24.47;;;14.40;99.90;;;;;;5135928;27;20130;-77
2022/09/11 00:44:24;;;;;;;28.03;21.93;;;14.40;99.90;;;;;;5135985;27;20524;-76
2022/09/11 00:47:01;;;;;;;31.20;24.10;;;14.40;99.90;;;;;;5117563;27;20047;-77
2022/09/11 00:49:39;;;;;;;28.67;22.92;;;14.30;99.90;;;;;;5135804;27;20042;-76
2022/09/11 00:52:16;;;;;;;28.30;23.67;;;14.30;99.90;;;;;;5136119;27;20043;-76
2022/09/11 00:54:50;;;;;;;26.30;20.45;;;14.30;99.90;;;;;;5135871;27;20047;-76
2022/09/11 00:57:19;;;;;;;30.45;24.15;;;14.30;99.90;;;;;;5135755;27;20131;-77
2022/09/11 00:59:46;;;;;;;30.27;23.45;;;14.40;99.90;;;;;;5135998;27;20065;-76
2022/09/11 01:02:18;;;;;;;31.60;24.70;;;14.20;99.90;;;;;;5135526;27;20057;-77
2022/09/11 01:04:43;;;;;;;29.30;23.27;;;14.20;99.90;;;;;;5135579;27;20053;-77
2022/09/11 01:07:11;;;;;;;29.00;20.13;;;14.20;99.90;;;;;;5135464;27;20043;-76
2022/09/11 01:09:37;;;;;;;26.98;22.58;;;14.10;99.90;;;;;;5135070;27;20383;-77
2022/09/11 01:12:15;;;;;;;27.80;23.03;;;14.10;99.90;;;;;;5117108;27;20125;-77
2022/09/11 01:14:56;;;;;;;25.75;22.15;;;14.10;99.90;;;;;;5135387;27;20047;-76
2022/09/11 01:17:43;;;;;;;29.23;23.27;;;14.00;99.90;;;;;;5135582;27;20092;-77
2022/09/11 01:20:37;;;;;;;33.00;25.00;;;14.00;99.90;;;;;;5135322;27;20047;-76
2022/09/11 01:23:48;;;;;;;33.63;24.60;;;14.00;99.90;;;;;;5135574;27;20099;-76
2022/09/11 01:26:57;;;;;;;30.17;22.95;;;14.00;99.90;;;;;;5135244;27;20066;-77
2022/09/11 01:29:34;;;;;;;33.05;24.08;;;14.00;99.90;;;;;;5099253;27;20402;-77
2022/09/11 01:32:14;;;;;;;30.45;22.17;;;14.00;99.90;;;;;;5135301;27;20072;-76
2022/09/11 01:35:03;;;;;;;29.02;23.77;;;13.90;99.90;;;;;;5135024;27;20039;-77
2022/09/11 01:37:40;;;;;;;30.05;22.67;;;14.00;99.90;;;;;;5134416;27;20035;-76
2022/09/11 01:40:36;;;;;;;27.85;21.10;;;14.00;99.90;;;;;;5135177;27;20474;-77
2022/09/11 01:43:12;;;;;;;30.02;22.30;;;14.00;99.90;;;;;;5134469;27;20055;-76
2022/09/11 01:45:40;;;;;;;31.75;24.85;;;13.90;99.90;;;;;;5135343;27;20051;-76
2022/09/11 01:48:07;;;;;;;34.60;25.73;;;14.00;99.90;;;;;;5116440;27;20054;-76
2022/09/11 01:50:37;;;;;;;37.42;27.20;;;14.00;99.90;;;;;;5134785;27;20410;-76
2022/09/11 01:53:05;;;;;;;45.03;28.52;;;14.00;99.90;;;;;;5134625;27;20036;-77
2022/09/11 01:55:38;;;;;;;58.38;25.55;;;14.00;99.90;;;;;;5134678;27;20050;-76
2022/09/11 01:58:35;;;;;;;35.58;22.52;;;14.00;99.90;;;;;;5134533;27;20482;-76
2022/09/11 02:01:18;;;;;;;36.45;25.25;;;14.00;99.90;;;;;;5125596;28;20499;-76
2022/09/11 02:03:59;;;;;;;34.78;21.88;;;14.00;99.90;;;;;;5134693;28;20039;-77
2022/09/11 02:06:34;;;;;;;31.20;22.58;;;14.00;99.90;;;;;;5135072;28;20039;-76
2022/09/11 02:09:06;;;;;;;23.52;17.92;;;13.90;99.90;;;;;;5134585;28;20083;-76
2022/09/11 02:11:35;;;;;;;25.02;17.95;;;14.00;99.90;;;;;;5134835;28;20050;-76
2022/09/11 02:14:06;;;;;;;29.25;20.25;;;13.90;99.90;;;;;;5134587;28;20054;-77
2022/09/11 02:16:48;;;;;;;27.15;20.77;;;13.90;99.90;;;;;;5134519;28;20039;-77
2022/09/11 02:19:17;;;;;;;36.05;18.70;;;13.90;99.90;;;;;;5116430;28;20045;-77
2022/09/11 02:21:44;;;;;;;34.33;21.63;;;13.90;99.90;;;;;;5134505;28;20047;-76
2022/09/11 02:24:10;;;;;;;26.40;19.92;;;13.90;99.90;;;;;;5134467;28;20390;-77
2022/09/11 02:26:46;;;;;;;24.47;19.27;;;13.90;99.90;;;;;;5134551;28;20100;-75
2022/09/11 02:29:12;;;;;;;23.20;19.33;;;13.80;99.90;;;;;;5134824;28;20586;-76
2022/09/11 02:31:38;;;;;;;21.80;17.08;;;13.80;99.90;;;;;;5134498;28;20120;-77
2022/09/11 02:34:04;;;;;;;22.30;15.68;;;13.80;99.90;;;;;;5134425;28;20079;-76
2022/09/11 02:36:37;;;;;;;19.20;14.87;;;13.80;99.90;;;;;;5134375;28;20450;-77
2022/09/11 02:39:28;;;;;;;17.73;14.48;;;13.70;99.90;;;;;;5134407;28;20084;-76
2022/09/11 02:41:54;;;;;;;16.75;14.88;;;13.80;99.90;;;;;;5134876;27;20047;-76
2022/09/11 02:44:43;;;;;;;18.80;13.73;;;13.70;99.90;;;;;;5134782;28;20052;-77
2022/09/11 02:47:39;;;;;;;14.88;12.88;;;13.70;99.90;;;;;;5134627;27;20078;-76
2022/09/11 02:50:39;;;;;;;14.85;13.13;;;13.60;99.90;;;;;;5138243;27;20471;-77
2022/09/11 02:53:13;;;;;;;30.50;15.98;;;13.70;99.90;;;;;;5137590;27;20062;-77
2022/09/11 02:55:56;;;;;;;23.27;15.50;;;13.60;99.90;;;;;;5119959;27;20055;-77
2022/09/11 02:58:59;;;;;;;18.58;14.23;;;13.60;99.90;;;;;;5138043;27;20393;-77
2022/09/11 03:01:24;;;;;;;15.45;12.57;;;13.50;99.90;;;;;;5132260;27;20074;-77
2022/09/11 03:03:50;;;;;;;15.43;13.70;;;13.50;99.90;;;;;;5137926;27;20479;-76
2022/09/11 03:06:26;;;;;;;14.67;12.50;;;13.50;99.90;;;;;;5137919;27;20043;-76
2022/09/11 03:08:52;;;;;;;16.03;14.33;;;13.50;99.90;;;;;;5137770;27;20039;-76
2022/09/11 03:11:18;;;;;;;21.08;14.57;;;13.50;99.90;;;;;;5137822;27;20049;-76
2022/09/11 03:13:45;;;;;;;23.58;16.00;;;13.70;99.90;;;;;;5138123;27;20043;-76
2022/09/11 03:16:11;;;;;;;19.83;13.85;;;13.40;99.90;;;;;;5137667;27;20078;-77
2022/09/11 03:18:37;;;;;;;16.23;14.52;;;13.40;99.90;;;;;;5137527;27;20511;-76
2022/09/11 03:21:03;;;;;;;21.97;17.33;;;13.40;99.90;;;;;;5137717;27;20054;-76
2022/09/11 03:23:29;;;;;;;18.23;15.00;;;13.40;99.90;;;;;;5137484;27;20039;-76
2022/09/11 03:25:55;;;;;;;19.20;14.25;;;13.30;99.90;;;;;;5137551;27;20039;-77
2022/09/11 03:28:21;;;;;;;20.10;17.35;;;13.30;99.90;;;;;;5137635;27;20080;-76
2022/09/11 03:30:51;;;;;;;20.30;15.48;;;13.40;99.90;;;;;;5137407;27;20130;-77
2022/09/11 03:33:17;;;;;;;17.75;14.43;;;13.30;99.90;;;;;;5137408;27;20121;-77
2022/09/11 03:35:43;;;;;;;18.93;16.47;;;13.30;99.90;;;;;;5137467;27;20123;-76
2022/09/11 03:38:10;;;;;;;16.83;15.00;;;13.30;99.90;;;;;;5137175;27;20474;-76
2022/09/11 03:40:36;;;;;;;;;;;13.30;99.90;;;;;;5138395;27;20658;-76
2022/09/11 03:43:02;;;;;;;16.13;13.80;;;13.30;99.90;;;;;;5136904;27;19972;-76
2022/09/11 03:45:27;;;;;;;14.63;13.05;;;13.30;99.90;;;;;;5137131;27;20126;-77
2022/09/11 03:47:53;;;;;;;15.17;13.67;;;13.30;99.90;;;;;;5118926;27;20092;-76
2022/09/11 03:50:19;;;;;;;14.77;13.27;;;13.30;99.90;;;;;;5137043;27;20043;-77
2022/09/11 03:52:44;;;;;;;15.13;12.90;;;13.30;99.90;;;;;;5136979;27;20047;-76
2022/09/11 03:55:10;;;;;;;15.02;13.57;;;13.20;99.90;;;;;;5136685;27;20047;-77
2022/09/11 03:57:37;;;;;;;14.30;12.63;;;13.10;99.90;;;;;;5136957;27;20399;-77
2022/09/11 04:00:05;;;;;;;13.20;11.88;;;13.20;99.90;;;;;;5136449;27;20096;-77
2022/09/11 04:02:31;;;;;;;14.05;12.65;;;13.20;99.90;;;;;;5136776;27;20050;-77
2022/09/11 04:04:57;;;;;;;14.00;12.70;;;13.30;99.90;;;;;;5136726;27;20047;-76
2022/09/11 04:07:23;;;;;;;12.90;11.13;;;13.20;99.90;;;;;;5136617;27;20046;-76
2022/09/11 04:09:48;;;;;;;14.20;12.82;;;13.30;99.90;;;;;;5136610;27;20043;-77
2022/09/11 04:12:15;;;;;;;12.90;11.60;;;13.30;99.90;;;;;;5136677;27;20047;-76
2022/09/11 04:14:40;;;;;;;13.23;12.02;;;13.30;99.90;;;;;;5136392;27;20047;-76
2022/09/11 04:17:07;;;;;;;12.27;11.10;;;13.30;99.90;;;;;;5136700;27;20058;-76
2022/09/11 04:19:33;;;;;;;12.27;10.93;;;13.30;99.90;;;;;;5136115;27;20540;-77
2022/09/11 04:21:59;;;;;;;14.20;12.80;;;13.30;99.90;;;;;;5136054;27;20567;-76
2022/09/11 04:24:24;;;;;;;13.83;12.53;;;13.30;99.90;;;;;;5136891;27;20093;-77
2022/09/11 04:26:50;;;;;;;15.20;13.80;;;13.30;99.90;;;;;;5136349;27;20050;-77
2022/09/11 04:29:16;;;;;;;12.43;11.15;;;13.20;99.90;;;;;;5136229;27;20099;-76
2022/09/11 04:31:42;;;;;;;13.02;11.60;;;13.20;99.90;;;;;;5136290;27;20047;-76
2022/09/11 04:34:08;;;;;;;11.98;10.43;;;13.20;99.90;;;;;;5136122;27;20397;-77
2022/09/11 04:36:34;;;;;;;14.18;12.93;;;13.50;99.90;;;;;;5136129;27;20039;-77
2022/09/11 04:39:00;;;;;;;13.88;12.57;;;13.30;99.90;;;;;;5136112;27;20126;-76
2022/09/11 04:41:26;;;;;;;14.13;12.90;;;13.40;99.90;;;;;;5136012;27;20073;-76
2022/09/11 04:44:01;;;;;;;13.00;11.70;;;13.20;99.90;;;;;;5136384;27;20478;-76
2022/09/11 04:46:26;;;;;;;13.90;11.82;;;13.20;99.90;;;;;;5136053;27;20144;-77
2022/09/11 04:48:54;;;;;;;12.70;11.37;;;13.10;99.90;;;;;;5135944;27;20078;-77
2022/09/11 04:51:23;;;;;;;14.00;12.50;;;13.10;99.90;;;;;;5117687;27;20196;-76
2022/09/11 04:53:50;;;;;;;12.75;11.43;;;13.10;99.90;;;;;;5135763;27;20123;-76
2022/09/11 04:56:16;;;;;;;12.80;11.38;;;13.10;99.90;;;;;;5135808;27;20084;-76
2022/09/11 04:58:42;;;;;;;12.65;11.45;;;13.10;99.90;;;;;;5135960;27;20062;-76
2022/09/11 05:01:12;;;;;;;12.10;10.97;;;13.00;99.90;;;;;;5135672;27;20043;-75
2022/09/11 05:03:38;;;;;;;13.35;12.15;;;13.00;99.90;;;;;;5135432;27;20526;-76
2022/09/11 05:06:09;;;;;;;12.40;11.17;;;13.00;99.90;;;;;;5135521;27;20086;-76
2022/09/11 05:08:35;;;;;;;12.60;11.35;;;13.00;99.90;;;;;;5135458;27;20088;-76
2022/09/11 05:11:04;;;;;;;11.73;10.52;;;13.30;99.90;;;;;;5134576;27;20047;-76
2022/09/11 05:13:31;;;;;;;12.73;11.52;;;13.20;99.90;;;;;;5135389;27;20050;-75
2022/09/11 05:16:03;;;;;;;11.30;9.98;;;13.00;99.90;;;;;;5135343;27;20047;-75
2022/09/11 05:18:29;;;;;;;12.43;11.13;;;13.00;99.90;;;;;;5135235;27;20383;-76
2022/09/11 05:21:00;;;;;;;15.67;12.33;;;13.00;99.90;;;;;;5135324;27;20047;-76
2022/09/11 05:23:26;;;;;;;12.93;11.68;;;13.00;99.90;;;;;;5135226;27;20050;-77
2022/09/11 05:25:56;;;;;;;12.13;10.73;;;13.00;99.90;;;;;;5135210;27;20049;-76
2022/09/11 05:28:22;;;;;;;13.90;12.50;;;13.10;99.90;;;;;;5135060;27;20035;-75
2022/09/11 05:30:48;;;;;;;12.93;11.53;;;13.30;99.90;;;;;;5135068;27;20065;-75
2022/09/11 05:33:14;;;;;;;13.30;12.00;;;13.10;99.90;;;;;;5134788;27;20474;-76
2022/09/11 05:35:40;;;;;;;13.55;12.25;;;13.10;99.90;;;;;;5134999;27;20049;-76
2022/09/11 05:38:05;;;;;;;13.10;11.80;;;13.10;99.90;;;;;;5134993;27;20046;-75
2022/09/11 05:40:31;;;;;;;15.45;13.95;;;13.40;99.90;;;;;;5134993;27;20095;-75
2022/09/11 05:42:56;;;;;;;15.77;14.10;;;13.20;99.90;;;;;;5134908;27;20090;-76
2022/09/11 05:45:23;;;;;;;13.75;12.40;;;13.30;99.90;;;;;;5134970;27;20406;-76
2022/09/11 05:47:49;;;;;;;;;;;13.30;99.90;;;;;;5134969;27;20043;-76
2022/09/11 05:50:14;;;;;;;14.27;11.75;;;13.30;99.90;;;;;;5135217;27;20267;-75
2022/09/11 05:52:40;;;;;;;14.57;12.80;;;13.40;99.90;;;;;;5135348;27;20114;-75
2022/09/11 05:55:06;;;;;;;12.93;11.63;;;13.40;99.90;;;;;;5134943;27;20046;-76
2022/09/11 05:57:31;;;;;;;14.18;12.88;;;13.50;99.90;;;;;;5134894;27;20043;-76
2022/09/11 05:59:57;;;;;;;13.95;12.73;;;13.80;99.90;;;;;;5134734;27;20514;-75
2022/09/11 06:02:23;;;;;;;13.30;12.10;;;13.60;99.90;;;;;;5116569;28;20047;-76
2022/09/11 06:04:48;;;;;;;14.20;12.90;;;13.60;99.90;;;;;;5134667;28;20054;-76
2022/09/11 06:07:14;;;;;;;14.98;13.48;;;14.00;99.90;;;;;;5134304;28;20077;-76
2022/09/11 06:09:40;;;;;;;12.75;11.55;;;13.70;99.90;;;;;;5134483;28;20046;-75
2022/09/11 06:12:05;;;;;;;14.40;13.10;;;13.70;99.90;;;;;;5134628;28;20075;-75
2022/09/11 06:14:31;;;;;;;12.60;11.30;;;13.70;99.90;;;;;;5134526;28;20078;-76
2022/09/11 06:16:56;;;;;;;12.10;10.65;;;13.80;99.90;;;;;;5134501;28;20427;-76
2022/09/11 06:19:22;;;;;;;12.93;11.65;;;13.80;99.90;;;;;;5134565;28;20122;-76
2022/09/11 06:21:49;;;;;;;13.98;12.77;;;13.80;99.90;;;;;;5116543;27;20051;-75
2022/09/11 06:24:14;;;;;;;12.38;11.07;;;13.80;99.90;;;;;;5138282;27;20112;-76
2022/09/11 06:26:40;;;;;;;13.00;11.80;;;13.80;99.90;;;;;;5138820;27;20134;-77
2022/09/11 06:29:06;;;;;;;12.15;10.95;;;14.00;99.90;;;;;;5138565;27;20043;-75
2022/09/11 06:31:32;;;;;;;13.48;11.95;;;14.20;99.90;;;;;;5138569;27;20175;-76
2022/09/11 06:33:57;;;;;;;13.83;12.60;;;13.80;99.90;;;;;;5138539;27;20071;-75
2022/09/11 06:36:25;;;;;;;13.47;12.17;;;13.90;99.90;;;;;;5138516;27;20126;-75
2022/09/11 06:38:56;;;;;;;13.85;12.52;;;13.90;99.90;;;;;;5138678;27;20122;-76
2022/09/11 06:41:23;;;;;;;13.52;12.13;;;13.90;99.90;;;;;;5120129;27;20054;-75
2022/09/11 06:43:49;;;;;;;15.75;14.25;;;14.00;99.90;;;;;;5138208;27;20055;-75
2022/09/11 06:46:20;;;;;;;14.75;13.35;;;14.00;99.90;;;;;;5138269;27;20129;-75
2022/09/11 06:48:49;;;;;;;15.05;13.45;;;14.10;99.90;;;;;;5138166;27;20152;-76
2022/09/11 06:51:17;;;;;;;16.25;14.65;;;14.20;99.90;;;;;;5138188;27;20084;-76
2022/09/11 06:53:43;;;;;;;16.90;15.20;;;14.30;99.90;;;;;;5138183;27;20046;-75
2022/09/11 06:56:11;;;;;;;15.55;13.93;;;14.40;99.90;;;;;;5138102;27;20053;-75
2022/09/11 06:58:38;;;;;;;16.90;15.13;;;14.50;99.90;;;;;;5138004;27;20050;-75
2022/09/11 07:01:09;;;;;;;15.80;14.30;;;14.60;99.90;;;;;;5138083;27;20047;-75
2022/09/11 07:03:36;;;;;;;15.85;14.27;;;14.80;99.90;;;;;;5137965;27;20047;-75
2022/09/11 07:06:02;;;;;;;12.43;11.32;;;14.90;99.90;;;;;;5137916;27;20049;-75
2022/09/11 07:08:27;;;;;;;15.18;13.57;;;15.10;99.90;;;;;;5137684;27;20125;-75
2022/09/11 07:10:53;;;;;;;14.57;13.23;;;15.10;99.90;;;;;;5137870;27;20042;-76
2022/09/11 07:13:21;;;;;;;15.77;14.23;;;15.30;99.90;;;;;;5137367;27;20509;-75
2022/09/11 07:15:48;;;;;;;15.20;13.73;;;15.40;99.90;;;;;;5138101;27;20047;-75
2022/09/11 07:18:14;;;;;;;13.93;12.57;;;15.50;99.90;;;;;;5137587;27;20078;-76
2022/09/11 07:20:40;;;;;;;14.48;13.07;;;15.50;99.90;;;;;;5137500;27;20179;-76
2022/09/11 07:23:06;;;;;;;14.60;13.30;;;15.60;99.90;;;;;;5137569;27;20039;-76
2022/09/11 07:25:37;;;;;;;14.77;13.38;;;15.70;99.90;;;;;;5137523;27;20131;-75
2022/09/11 07:28:03;;;;;;;15.23;13.82;;;15.70;99.90;;;;;;5137353;27;20047;-76
2022/09/11 07:30:29;;;;;;;14.70;13.20;;;15.80;99.90;;;;;;5137379;27;20058;-75
2022/09/11 07:32:55;;;;;;;15.30;13.90;;;15.80;99.90;;;;;;5137360;27;20402;-76
2022/09/11 07:35:20;;;;;;;14.63;13.23;;;15.90;99.90;;;;;;5136185;27;20058;-75
2022/09/11 07:37:50;;;;;;;14.23;12.70;;;16.10;99.90;;;;;;5137480;27;20051;-76
2022/09/11 07:40:16;;;;;;;14.35;12.75;;;16.20;99.90;;;;;;5137230;27;20051;-76
2022/09/11 07:42:41;;;;;;;15.13;13.73;;;16.30;99.90;;;;;;5137128;27;20147;-76
2022/09/11 07:45:09;;;;;;;15.00;13.03;;;16.40;99.90;;;;;;5137136;27;20398;-75
2022/09/11 07:47:34;;;;;;;13.48;12.07;;;16.50;99.90;;;;;;5119038;27;20039;-76
2022/09/11 07:50:00;;;;;;;15.00;13.50;;;16.60;99.90;;;;;;5137014;27;20520;-76
2022/09/11 07:52:25;;;;;;;13.47;12.17;;;16.70;99.90;;;;;;5137125;27;20047;-76
2022/09/11 07:54:51;;;;;;;15.50;13.30;;;16.70;99.90;;;;;;5136948;27;20045;-76
2022/09/11 07:57:18;;;;;;;15.57;13.60;;;16.90;99.90;;;;;;5136836;27;20086;-75
2022/09/11 07:59:45;;;;;;;;;;;16.90;99.90;;;;;;5119395;27;20042;-75
2022/09/11 08:02:11;;;;;;;14.70;13.15;;;17.00;99.90;;;;;;5136861;27;19926;-75
2022/09/11 08:04:37;;;;;;;14.70;13.30;;;17.10;99.90;;;;;;5118756;27;20054;-75
2022/09/11 08:07:03;;;;;;;14.63;13.13;;;17.30;99.90;;;;;;5136757;27;20475;-76
2022/09/11 08:09:28;;;;;;;12.50;11.30;;;17.40;99.90;;;;;;5136713;27;20566;-76
2022/09/11 08:11:57;;;;;;;15.97;12.70;;;17.50;99.90;;;;;;5136605;27;20513;-76
2022/09/11 08:14:24;;;;;;;13.52;12.20;;;17.60;99.90;;;;;;5136569;27;20051;-76
2022/09/11 08:16:50;;;;;;;13.65;12.07;;;17.60;99.90;;;;;;5118500;27;20382;-76
2022/09/11 08:19:18;;;;;;;10.80;9.70;;;17.80;99.90;;;;;;5136484;27;20091;-75
2022/09/11 08:21:43;;;;;;;14.32;11.40;;;17.90;99.90;;;;;;5136401;27;20054;-76
2022/09/11 08:24:12;;;;;;;14.03;12.60;;;17.90;99.90;;;;;;5136090;27;20039;-76
2022/09/11 08:26:37;;;;;;;12.60;9.35;;;18.00;99.90;;;;;;5136199;27;20120;-76
2022/09/11 08:29:04;;;;;;;10.60;9.50;;;18.10;99.90;;;;;;5136231;27;20031;-76
2022/09/11 08:31:29;;;;;;;11.30;10.20;;;18.20;99.90;;;;;;5136255;27;20078;-76
2022/09/11 08:33:56;;;;;;;11.70;9.47;;;18.40;99.90;;;;;;5136230;27;20085;-75
2022/09/11 08:36:22;;;;;;;11.40;9.88;;;18.40;99.90;;;;;;5136120;27;20042;-76
2022/09/11 08:38:48;;;;;;;12.57;9.93;;;18.50;99.90;;;;;;5135872;27;20134;-76
2022/09/11 08:41:22;;;;;;;11.30;9.43;;;18.60;99.90;;;;;;5135987;27;20129;-76
2022/09/11 08:44:02;;;;;;;11.48;9.60;;;18.80;99.90;;;;;;5136488;27;20054;-76
2022/09/11 08:46:38;;;;;;;11.32;9.02;;;18.90;99.90;;;;;;5136062;27;20043;-76
2022/09/11 08:49:19;;;;;;;11.45;9.32;;;18.90;99.90;;;;;;5135703;27;20476;-76
2022/09/11 08:51:46;;;;;;;12.20;8.45;;;18.80;99.90;;;;;;5135845;27;20402;-76
2022/09/11 08:54:26;;;;;;;9.10;8.20;;;18.90;99.90;;;;;;5135800;27;20039;-76
2022/09/11 08:56:56;;;;;;;9.32;6.18;;;18.90;99.90;;;;;;5135790;27;20051;-76
2022/09/11 08:59:33;;;;;;;7.82;6.32;;;19.00;99.90;;;;;;5135694;27;20047;-77
2022/09/11 09:02:24;;;;;;;8.17;6.33;;;19.10;99.90;;;;;;5135691;27;20080;-76
2022/09/11 09:05:27;;;;;;;10.82;6.38;;;19.20;99.90;;;;;;5089713;27;20108;-76
2022/09/11 09:08:10;;;;;;;8.15;5.55;;;19.20;99.90;;;;;;5135404;27;20096;-76
2022/09/11 09:10:47;;;;;;;6.65;5.22;;;19.30;99.90;;;;;;5135487;27;20683;-76
2022/09/11 09:13:38;;;;;;;8.60;5.70;;;19.30;99.90;;;;;;5135454;27;20047;-77
2022/09/11 09:16:33;;;;;;;7.97;5.47;;;19.40;99.90;;;;;;5135348;27;20039;-77
2022/09/11 09:19:08;;;;;;;5.18;4.00;;;19.60;99.90;;;;;;5135278;27;20039;-76
2022/09/11 09:22:01;;;;;;;6.15;3.80;;;19.90;99.90;;;;;;5135742;27;20387;-77
2022/09/11 09:24:33;;;;;;;4.53;3.10;;;20.00;99.90;;;;;;5134499;27;20093;-76
2022/09/11 09:27:00;;;;;;;4.50;3.45;;;20.40;99.90;;;;;;5135271;27;20091;-76
2022/09/11 09:29:34;;;;;;;5.75;4.13;;;20.60;99.90;;;;;;5135019;27;20490;-76
2022/09/11 09:32:05;;;;;;;8.10;3.58;;;20.60;99.90;;;;;;5135193;27;20054;-76
2022/09/11 09:34:36;;;;;;;5.22;3.03;;;20.60;99.90;;;;;;5134921;27;20132;-76
2022/09/11 09:37:10;;;;;;;5.75;3.45;;;20.70;99.90;;;;;;5134910;27;20388;-77
2022/09/11 09:39:36;;;;;;;6.57;3.55;;;20.80;99.90;;;;;;5135074;27;20399;-76
2022/09/11 09:42:14;;;;;;;6.03;3.20;;;20.70;99.90;;;;;;5134902;27;20050;-76
2022/09/11 09:44:49;;;;;;;4.32;2.50;;;20.60;99.90;;;;;;5100440;27;20059;-76
2022/09/11 09:47:16;;;;;;;7.85;3.63;;;20.50;99.90;;;;;;5135157;27;20088;-76
2022/09/11 09:49:42;;;;;;;6.72;4.93;;;20.40;99.90;;;;;;5116519;27;20088;-76
2022/09/11 09:52:17;;;;;;;7.28;5.47;;;20.20;99.90;;;;;;5134766;27;20039;-77
2022/09/11 09:54:51;;;;;;;7.35;6.05;;;20.30;99.90;;;;;;5134783;27;20079;-76
2022/09/11 09:57:17;;;;;;;6.22;5.07;;;20.30;99.90;;;;;;5134505;27;20058;-76
2022/09/11 09:59:48;;;;;;;;;;;20.40;99.90;;;;;;5117172;27;20088;-75
2022/09/11 10:02:52;;;;;;;7.10;5.80;;;20.30;99.90;;;;;;5134732;27;20038;-76
2022/09/11 10:05:27;;;;;;;6.40;5.13;;;20.20;99.90;;;;;;5135059;27;20047;-76
2022/09/11 10:07:56;;;;;;;7.95;5.07;;;20.10;99.90;;;;;;5134652;28;20035;-76
2022/09/11 10:10:25;;;;;;;8.93;5.32;;;20.10;99.90;;;;;;5134833;28;20041;-76
2022/09/11 10:12:52;;;;;;;8.45;4.68;;;19.90;99.90;;;;;;5134615;28;20428;-76
2022/09/11 10:15:21;;;;;;;6.47;4.57;;;20.10;99.90;;;;;;5134509;28;20118;-77
2022/09/11 10:17:47;;;;;;;9.50;4.45;;;20.30;99.90;;;;;;5134496;28;20054;-77
2022/09/11 10:20:13;;;;;;;4.88;3.30;;;20.40;99.90;;;;;;5134885;28;20053;-76
2022/09/11 10:22:38;;;;;;;5.83;3.37;;;20.60;99.90;;;;;;5134373;28;20043;-77
2022/09/11 10:25:15;;;;;;;5.20;3.20;;;20.70;99.90;;;;;;5134364;28;20127;-76
2022/09/11 10:27:52;;;;;;;5.82;3.40;;;20.70;99.90;;;;;;5116343;28;20055;-77
2022/09/11 10:30:37;;;;;;;6.05;3.63;;;20.70;99.90;;;;;;5134932;28;20470;-77
2022/09/11 10:33:15;;;;;;;5.65;4.15;;;20.80;99.90;;;;;;5134326;28;20047;-76
2022/09/11 10:35:48;;;;;;;;;;;20.80;99.90;;;;;;5134829;28;20046;-75
2022/09/11 10:38:18;;;;;;;5.28;3.17;;;20.80;99.90;;;;;;5115954;28;20302;-76
2022/09/11 10:41:01;;;;;;;4.45;3.10;;;20.70;99.90;;;;;;5134334;28;20093;-76
2022/09/11 10:43:55;;;;;;;5.20;2.92;;;20.60;99.90;;;;;;5134323;27;20058;-77
2022/09/11 10:46:31;;;;;;;5.97;2.60;;;20.50;99.90;;;;;;5120499;28;20092;-76
2022/09/11 10:49:07;;;;;;;4.80;2.88;;;20.40;99.90;;;;;;5134212;28;20050;-76
2022/09/11 10:51:39;;;;;;;5.60;2.15;;;20.20;99.90;;;;;;5134591;28;20043;-76
2022/09/11 10:54:40;;;;;;;5.25;2.25;;;20.20;99.90;;;;;;5134132;28;20039;-76
2022/09/11 10:57:16;;;;;;;3.50;1.85;;;20.10;99.90;;;;;;5134101;28;20066;-77
2022/09/11 11:00:08;;;;;;;4.22;2.10;;;20.20;99.90;;;;;;5134796;28;20161;-76
2022/09/11 11:02:37;;;;;;;4.25;2.33;;;20.30;99.90;;;;;;5118136;28;20478;-76
2022/09/11 11:05:29;;;;;;;6.75;2.20;;;20.20;99.90;;;;;;5133945;28;20483;-77
2022/09/11 11:08:11;;;;;;;3.80;2.00;;;20.20;99.90;;;;;;5085894;28;20051;-77
2022/09/11 11:10:43;;;;;;;3.85;2.00;;;20.20;99.90;;;;;;5137934;27;20455;-77
2022/09/11 11:13:21;;;;;;;3.90;2.53;;;20.40;99.90;;;;;;5119729;27;20372;-76
2022/09/11 11:16:26;;;;;;;5.07;2.35;;;20.70;99.90;;;;;;5137376;27;20482;-76
2022/09/11 11:19:28;;;;;;;4.65;2.88;;;20.90;99.90;;;;;;5122392;27;20062;-76
2022/09/11 11:22:22;;;;;;;6.30;2.33;;;21.20;99.90;;;;;;5137648;27;20474;-76
2022/09/11 11:25:10;;;;;;;4.55;2.60;;;21.20;99.90;;;;;;5137561;27;20043;-76
2022/09/11 11:27:48;;;;;;;4.72;2.03;;;21.20;99.90;;;;;;5119433;27;20046;-76
2022/09/11 11:30:18;;;;;;;;;;;21.20;99.90;;;;;;5137682;27;20043;-77
2022/09/11 11:33:17;;;;;;;5.25;2.05;;;21.10;99.90;;;;;;5137022;27;20461;-76
2022/09/11 11:36:09;;;;;;;4.32;1.95;;;21.10;99.90;;;;;;5137704;27;20051;-76
2022/09/11 11:38:51;;;;;;;3.50;2.28;;;21.00;99.90;;;;;;5137376;27;20039;-76
2022/09/11 11:41:29;;;;;;;4.85;2.53;;;21.00;99.90;;;;;;5137702;27;20097;-77
2022/09/11 11:43:58;;;;;;;4.55;2.28;;;20.90;99.90;;;;;;5136858;27;20051;-76
2022/09/11 11:46:23;;;;;;;3.95;2.15;;;20.80;99.90;;;;;;5137103;27;20058;-76
2022/09/11 11:48:56;;;;;;;4.77;2.70;;;20.70;99.90;;;;;;5137149;27;20035;-76
2022/09/11 11:51:26;;;;;;;3.45;2.00;;;20.60;99.90;;;;;;5118659;27;20043;-76
2022/09/11 11:54:09;;;;;;;4.38;2.40;;;20.60;99.90;;;;;;5118489;27;20482;-76
2022/09/11 11:56:56;;;;;;;4.97;2.13;;;20.50;99.90;;;;;;5137320;27;20047;-76
2022/09/11 11:59:43;;;;;;;4.55;2.33;;;20.50;99.90;;;;;;5118815;27;20035;-76
2022/09/11 12:02:08;;;;;;;7.00;2.50;;;20.60;99.90;;;;;;5136576;27;20039;-76
2022/09/11 12:04:55;;;;;;;4.77;2.07;;;20.90;99.90;;;;;;5136821;27;20058;-76
2022/09/11 12:07:29;;;;;;;5.60;2.28;;;21.20;99.90;;;;;;5136763;27;20043;-77
2022/09/11 12:09:57;;;;;;;3.53;1.80;;;21.50;99.90;;;;;;5136675;27;20039;-77
2022/09/11 12:12:27;;;;;;;3.58;2.17;;;21.80;99.90;;;;;;5136284;27;20041;-77
2022/09/11 12:14:55;;;;;;;3.25;1.90;;;21.90;99.90;;;;;;5136612;27;20043;-76
2022/09/11 12:17:27;;;;;;;4.78;2.00;;;22.10;99.90;;;;;;5136989;27;20054;-77
2022/09/11 12:20:11;;;;;;;3.45;1.90;;;22.20;99.90;;;;;;5136040;27;20043;-77
2022/09/11 12:22:43;;;;;;;3.38;2.03;;;22.40;99.90;;;;;;5136141;27;20133;-76
2022/09/11 12:25:18;;;;;;;3.45;2.17;;;22.70;99.90;;;;;;5136503;27;20049;-76
2022/09/11 12:27:53;;;;;;;5.10;1.77;;;22.70;99.90;;;;;;5136315;27;20126;-76
2022/09/11 12:30:21;;;;;;;3.15;1.70;;;22.80;99.90;;;;;;5136494;27;20372;-77
2022/09/11 12:32:51;;;;;;;4.18;2.05;;;23.10;99.90;;;;;;5136042;27;20456;-76
2022/09/11 12:35:25;;;;;;;3.58;1.73;;;23.10;99.90;;;;;;5136058;27;20051;-76
2022/09/11 12:38:00;;;;;;;5.72;1.80;;;23.30;99.90;;;;;;5136407;27;20127;-76
2022/09/11 12:40:53;;;;;;;3.60;1.40;;;23.60;99.90;;;;;;5136485;27;20043;-76
2022/09/11 12:43:34;;;;;;;4.80;1.40;;;23.80;99.90;;;;;;5136131;27;20108;-76
2022/09/11 12:46:01;;;;;;;3.88;1.45;;;24.00;99.90;;;;;;5135913;27;20130;-76
2022/09/11 12:48:37;;;;;;;3.97;1.70;;;24.00;99.90;;;;;;5135738;27;20555;-76
2022/09/11 12:51:04;;;;;;;3.20;1.35;;;23.70;99.90;;;;;;5135817;27;20126;-76
2022/09/11 12:53:34;;;;;;;3.08;1.50;;;23.60;99.90;;;;;;5136003;27;20467;-77
2022/09/11 12:56:00;;;;;;;3.20;1.70;;;23.50;99.90;;;;;;5135716;27;20423;-77
2022/09/11 12:58:42;;;;;;;2.60;1.42;;;23.50;99.90;;;;;;5135640;27;20047;-77